Time;durP1;ratioP1;P1;durP2;ratioP2;P2;SDS_P1;SDS_P2;PMS_P1;PMS_P2;Temp;Humidity;BMP_temperature;BMP_pressure;BME280_temperature;BME280_humidity;BME280_pressure;Samples;Min_cycle;Max_cycle;Signal;HPM_P1;HPM_P2
2024/01/06 00:01:13;;;;;;;;;;;;;;;5.41;100.00;100159.50;5021625;28;19961;-74
2024/01/06 00:03:38;;;;;;;;;;;;;;;5.43;100.00;100170.91;5005601;28;20469;-74
2024/01/06 00:06:04;;;;;;;;;;;;;;;5.33;100.00;100175.97;4988442;28;19921;-73
2024/01/06 00:08:29;;;;;;;;;;;;;;;5.39;100.00;100180.03;5019734;28;20467;-74
2024/01/06 00:10:55;;;;;;;;;;;;;;;5.37;100.00;100184.59;5006157;28;19920;-73
2024/01/06 00:13:20;;;;;;;;;;;;;;;5.37;100.00;100185.47;5023050;28;19925;-73
2024/01/06 00:15:45;;;;;;;;;;;;;;;5.29;100.00;100195.78;5005543;28;20006;-74
2024/01/06 00:18:10;;;;;;;;;;;;;;;5.32;100.00;100202.69;5001920;28;19921;-73
2024/01/06 00:20:36;;;;;;;;;;;;;;;5.17;100.00;100205.41;5001410;28;19936;-73
2024/01/06 00:23:01;;;;;;;;;;;;;;;5.23;100.00;100212.13;5024368;28;19971;-73
2024/01/06 00:25:26;;;;;;;;;;;;;;;5.24;100.00;100209.38;4992383;28;20303;-74
2024/01/06 00:27:51;;;;;;;;;;;;;;;5.24;100.00;100220.03;5011027;28;19921;-74
2024/01/06 00:30:16;;;;;;;;;;;;;;;5.19;100.00;100221.28;5025115;28;20633;-74
2024/01/06 00:32:42;;;;;;;;;;;;;;;5.22;100.00;100229.06;5024043;28;19929;-73
2024/01/06 00:35:07;;;;;;;;;;;;;;;5.14;100.00;100240.22;5008055;28;19925;-73
2024/01/06 00:37:32;;;;;;;;;;;;;;;5.20;100.00;100238.94;5023468;28;19947;-73
2024/01/06 00:39:57;;;;;;;;;;;;;;;5.12;100.00;100235.94;5002005;28;19925;-73
2024/01/06 00:42:23;;;;;;;;;;;;;;;5.11;100.00;100240.41;5018302;28;19949;-73
2024/01/06 00:44:48;;;;;;;;;;;;;;;5.08;100.00;100237.94;5003890;28;19952;-73
2024/01/06 00:47:13;;;;;;;;;;;;;;;5.02;100.00;100243.69;5007220;28;20012;-73
2024/01/06 00:49:38;;;;;;;;;;;;;;;4.95;100.00;100251.16;5022993;28;20279;-74
2024/01/06 00:52:04;;;;;;;;;;;;;;;4.97;100.00;100251.94;5007858;28;19921;-73
2024/01/06 00:54:29;;;;;;;;;;;;;;;4.90;100.00;100255.97;5007035;28;19925;-73
2024/01/06 00:56:54;;;;;;;;;;;;;;;4.89;100.00;100255.09;5003733;28;20390;-74
2024/01/06 00:59:19;;;;;;;;;;;;;;;4.86;100.00;100259.75;4988633;28;19960;-73
2024/01/06 01:01:45;;;;;;;;;;;;;;;4.83;100.00;100260.78;5003775;28;19922;-74
2024/01/06 01:04:10;;;;;;;;;;;;;;;4.75;100.00;100269.25;4989802;28;19925;-73
2024/01/06 01:06:36;;;;;;;;;;;;;;;4.70;100.00;100268.69;5008284;28;19955;-73
2024/01/06 01:09:02;;;;;;;;;;;;;;;4.69;100.00;100282.94;4991097;28;19921;-74
2024/01/06 01:11:27;;;;;;;;;;;;;;;4.69;100.00;100282.94;5025591;28;20012;-73
2024/01/06 01:13:52;;;;;;;;;;;;;;;4.70;100.00;100279.31;5022858;28;19956;-73
2024/01/06 01:16:17;;;;;;;;;;;;;;;4.67;100.00;100279.50;5004093;28;19932;-73
2024/01/06 01:18:43;;;;;;;;;;;;;;;4.66;100.00;100277.78;5024953;28;20395;-73
2024/01/06 01:21:08;;;;;;;;;;;;;;;4.66;100.00;100283.13;5009897;28;20376;-74
2024/01/06 01:23:33;;;;;;;;;;;;;;;4.65;100.00;100286.72;5008558;28;20403;-73
2024/01/06 01:25:59;;;;;;;;;;;;;;;4.71;100.00;100296.16;5004765;28;19922;-74
2024/01/06 01:28:24;;;;;;;;;;;;;;;4.72;100.00;100301.34;5026274;28;20326;-73
2024/01/06 01:30:49;;;;;;;;;;;;;;;4.72;100.00;100319.97;5024788;28;20378;-74
2024/01/06 01:33:14;;;;;;;;;;;;;;;4.69;100.00;100320.16;5010740;28;19928;-73
2024/01/06 01:35:40;;;;;;;;;;;;;;;4.72;100.00;100324.44;5010324;28;19925;-73
2024/01/06 01:38:06;;;;;;;;;;;;;;;4.70;100.00;100332.50;5028192;28;19921;-73
2024/01/06 01:40:31;;;;;;;;;;;;;;;4.60;100.00;100328.72;4992117;28;20355;-73
2024/01/06 01:42:57;;;;;;;;;;;;;;;4.58;100.00;100333.28;5023850;28;19936;-73
2024/01/06 01:45:22;;;;;;;;;;;;;;;4.61;100.00;100343.72;5026238;28;20283;-73
2024/01/06 01:47:47;;;;;;;;;;;;;;;4.51;100.00;100354.03;5012441;28;20019;-73
2024/01/06 01:50:12;;;;;;;;;;;;;;;4.56;100.00;100351.97;5011317;28;19928;-73
2024/01/06 01:52:38;;;;;;;;;;;;;;;4.48;100.00;100364.88;4993660;28;19925;-73
2024/01/06 01:55:04;;;;;;;;;;;;;;;4.40;100.00;100373.28;5008812;28;19999;-73
2024/01/06 01:57:29;;;;;;;;;;;;;;;4.40;100.00;100375.94;5023749;28;21015;-73
2024/01/06 01:59:54;;;;;;;;;;;;;;;4.40;100.00;100375.94;5007106;28;19921;-73
2024/01/06 02:02:19;;;;;;;;;;;;;;;4.42;100.00;100375.88;5010206;28;19921;-73
2024/01/06 02:04:45;;;;;;;;;;;;;;;4.35;100.00;100376.22;5012438;28;20207;-74
2024/01/06 02:07:10;;;;;;;;;;;;;;;4.26;100.00;100389.22;5009135;28;20264;-73
2024/01/06 02:09:35;;;;;;;;;;;;;;;4.20;100.00;100393.94;4994941;28;19923;-73
2024/01/06 02:12:01;;;;;;;;;;;;;;;4.23;100.00;100392.03;5028024;28;19963;-74
2024/01/06 02:14:26;;;;;;;;;;;;;;;4.29;100.00;100400.50;5011464;28;20019;-73
2024/01/06 02:16:51;;;;;;;;;;;;;;;4.24;100.00;100393.75;5025530;28;19925;-74
2024/01/06 02:19:17;;;;;;;;;;;;;;;4.14;100.00;100375.69;5009850;28;19924;-74
2024/01/06 02:21:43;;;;;;;;;;;;;;;4.20;100.00;100409.88;5011186;28;19925;-73
2024/01/06 02:24:08;;;;;;;;;;;;;;;4.07;100.00;100411.56;4994751;28;19928;-73
2024/01/06 02:26:34;;;;;;;;;;;;;;;4.00;100.00;100418.16;5013072;28;20457;-74
2024/01/06 02:28:59;;;;;;;;;;;;;;;4.11;100.00;100412.22;5012075;28;20438;-73
2024/01/06 02:31:24;;;;;;;;;;;;;;;4.12;100.00;100414.78;5025286;28;19925;-73
2024/01/06 02:33:49;;;;;;;;;;;;;;;3.94;100.00;100431.78;5009013;28;19948;-73
2024/01/06 02:36:14;;;;;;;;;;;;;;;3.94;100.00;100424.69;5013896;28;19964;-74
2024/01/06 02:38:40;;;;;;;;;;;;;;;3.87;100.00;100437.41;5010896;28;20035;-73
2024/01/06 02:41:05;;;;;;;;;;;;;;;3.78;100.00;100448.59;4992980;28;20019;-74
2024/01/06 02:43:30;;;;;;;;;;;;;;;3.86;100.00;100448.16;4994679;28;19921;-74
2024/01/06 02:45:55;;;;;;;;;;;;;;;4.00;100.00;100450.03;5026988;28;19924;-74
2024/01/06 02:48:20;;;;;;;;;;;;;;;3.91;100.00;100462.03;4996648;28;19927;-74
2024/01/06 02:50:46;;;;;;;;;;;;;;;3.82;100.00;100466.06;5010053;28;19931;-74
2024/01/06 02:53:12;;;;;;;;;;;;;;;3.86;100.00;100467.59;5012551;28;19917;-74
2024/01/06 02:55:37;;;;;;;;;;;;;;;3.73;100.00;100467.41;5009219;28;19920;-74
2024/01/06 02:58:03;;;;;;;;;;;;;;;3.78;100.00;100475.13;5029166;28;19940;-74
2024/01/06 03:00:28;;;;;;;;;;;;;;;3.78;100.00;100475.13;5027588;28;19924;-74
2024/01/06 03:02:53;;;;;;;;;;;;;;;3.78;100.00;100471.59;5011675;28;20364;-74
2024/01/06 03:05:18;;;;;;;;;;;;;;;3.82;100.00;100478.47;4993042;28;19924;-74
2024/01/06 03:07:44;;;;;;;;;;;;;;;3.87;100.00;100484.38;5026080;28;19967;-74
2024/01/06 03:10:09;;;;;;;;;;;;;;;3.79;100.00;100487.47;5007682;28;20217;-74
2024/01/06 03:12:34;;;;;;;;;;;;;;;3.98;100.00;100481.13;5012450;28;20359;-74
2024/01/06 03:14:59;;;;;;;;;;;;;;;3.99;100.00;100490.81;5008723;28;19968;-74
2024/01/06 03:17:25;;;;;;;;;;;;;;;3.89;100.00;100493.97;5011255;28;20023;-74
2024/01/06 03:19:50;;;;;;;;;;;;;;;3.81;100.00;100504.19;5026918;28;19921;-74
2024/01/06 03:22:15;;;;;;;;;;;;;;;3.81;100.00;100512.16;5009063;28;19921;-74
2024/01/06 03:24:40;;;;;;;;;;;;;;;3.78;100.00;100506.13;5009881;28;19984;-74
2024/01/06 03:27:06;;;;;;;;;;;;;;;3.85;100.00;100507.53;5023832;28;19925;-74
2024/01/06 03:29:31;;;;;;;;;;;;;;;3.83;100.00;100512.94;4989201;28;19925;-74
2024/01/06 03:31:57;;;;;;;;;;;;;;;3.88;100.00;100505.53;5010984;28;19925;-74
2024/01/06 03:34:22;;;;;;;;;;;;;;;3.81;100.00;100509.50;4990944;28;20022;-74
2024/01/06 03:36:48;;;;;;;;;;;;;;;3.77;100.00;100507.06;4995053;28;19921;-74
2024/01/06 03:39:14;;;;;;;;;;;;;;;3.79;100.00;100514.03;5026632;28;19960;-74
2024/01/06 03:41:39;;;;;;;;;;;;;;;3.74;100.00;100514.25;5010856;28;19928;-74
2024/01/06 03:44:04;;;;;;;;;;;;;;;3.76;100.00;100514.19;5027318;28;20489;-74
2024/01/06 03:46:29;;;;;;;;;;;;;;;3.69;100.00;100521.66;4994885;28;19959;-74
2024/01/06 03:48:54;;;;;;;;;;;;;;;3.69;100.00;100523.44;5007747;28;20360;-74
2024/01/06 03:51:20;;;;;;;;;;;;;;;3.66;100.00;100528.91;5009213;28;20430;-73
2024/01/06 03:53:46;;;;;;;;;;;;;;;3.57;100.00;100530.25;5009025;28;19921;-74
2024/01/06 03:56:12;;;;;;;;;;;;;;;3.65;100.00;100530.72;5022848;28;19932;-74
2024/01/06 03:58:38;;;;;;;;;;;;;;;3.60;100.00;100530.94;5008453;28;19927;-74
2024/01/06 04:01:03;;;;;;;;;;;;;;;3.55;100.00;100533.00;5010239;28;20299;-74
2024/01/06 04:03:29;;;;;;;;;;;;;;;3.52;100.00;100533.16;5008563;28;21044;-74
2024/01/06 04:05:54;;;;;;;;;;;;;;;3.49;100.00;100543.06;5020763;28;20015;-74
2024/01/06 04:08:19;;;;;;;;;;;;;;;3.44;100.00;100549.47;5006976;28;19921;-74
2024/01/06 04:10:44;;;;;;;;;;;;;;;3.45;100.00;100555.66;5009700;28;19916;-74
2024/01/06 04:13:12;;;;;;;;;;;;;;;3.37;100.00;100544.56;4991849;28;19941;-74
2024/01/06 04:15:38;;;;;;;;;;;;;;;3.40;100.00;100547.06;5025051;28;20122;-74
2024/01/06 04:18:04;;;;;;;;;;;;;;;3.39;100.00;100555.97;5007249;28;19918;-74
2024/01/06 04:20:29;;;;;;;;;;;;;;;3.42;100.00;100553.16;5024812;28;19927;-74
2024/01/06 04:22:54;;;;;;;;;;;;;;;3.47;100.00;100553.78;5024046;28;19928;-74
2024/01/06 04:25:19;;;;;;;;;;;;;;;3.45;100.00;100548.53;5021573;28;19917;-74
2024/01/06 04:27:46;;;;;;;;;;;;;;;3.47;100.00;100556.44;5008714;28;19936;-74
2024/01/06 04:30:12;;;;;;;;;;;;;;;3.43;100.00;100553.09;5007728;28;19925;-74
2024/01/06 04:32:37;;;;;;;;;;;;;;;3.43;100.00;100554.88;5012659;28;20614;-74
2024/01/06 04:35:02;;;;;;;;;;;;;;;3.35;100.00;100557.94;5010850;28;19952;-74
2024/01/06 04:37:28;;;;;;;;;;;;;;;3.44;100.00;100567.22;5010947;28;20002;-74
2024/01/06 04:39:53;;;;;;;;;;;;;;;3.43;100.00;100565.50;4987363;28;20379;-74
2024/01/06 04:42:19;;;;;;;;;;;;;;;3.46;100.00;100570.66;5025984;28;19959;-74
2024/01/06 04:44:44;;;;;;;;;;;;;;;3.44;100.00;100572.53;5007531;28;19921;-74
2024/01/06 04:47:10;;;;;;;;;;;;;;;3.42;100.00;100577.94;5011164;28;19975;-74
2024/01/06 04:49:35;;;;;;;;;;;;;;;3.47;100.00;100577.69;5009727;28;19950;-74
2024/01/06 04:52:00;;;;;;;;;;;;;;;3.48;100.00;100582.03;5023074;28;19936;-74
2024/01/06 04:54:25;;;;;;;;;;;;;;;3.49;100.00;100585.53;5012512;28;19956;-74
2024/01/06 04:56:50;;;;;;;;;;;;;;;3.50;100.00;100577.53;5012093;28;20015;-74
2024/01/06 04:59:16;;;;;;;;;;;;;;;3.42;100.00;100585.00;5008929;28;19921;-74
2024/01/06 05:01:41;;;;;;;;;;;;;;;3.45;100.00;100590.16;5025396;28;19920;-74
2024/01/06 05:04:06;;;;;;;;;;;;;;;3.42;100.00;100595.63;5010360;28;19921;-74
2024/01/06 05:06:31;;;;;;;;;;;;;;;3.45;100.00;100590.16;4998435;28;19932;-74
2024/01/06 05:08:57;;;;;;;;;;;;;;;3.51;100.00;100594.28;5011013;28;19931;-74
2024/01/06 05:11:22;;;;;;;;;;;;;;;3.45;100.00;100598.13;5008463;28;19932;-74
2024/01/06 05:13:47;;;;;;;;;;;;;;;3.41;100.00;100597.44;5026041;28;19921;-74
2024/01/06 05:16:12;;;;;;;;;;;;;;;3.42;100.00;100595.63;5009164;28;19925;-74
2024/01/06 05:18:37;;;;;;;;;;;;;;;3.43;100.00;100592.91;5012662;28;19921;-74
2024/01/06 05:21:03;;;;;;;;;;;;;;;3.48;100.00;100600.63;5027697;28;19921;-75
2024/01/06 05:23:28;;;;;;;;;;;;;;;3.31;100.00;100582.91;5025464;28;19956;-74
2024/01/06 05:25:54;;;;;;;;;;;;;;;3.37;100.00;100609.16;5010890;28;19928;-74
2024/01/06 05:28:19;;;;;;;;;;;;;;;3.39;100.00;100614.38;5025706;28;20004;-74
2024/01/06 05:30:44;;;;;;;;;;;;;;;3.34;100.00;100624.34;5011506;28;19920;-74
2024/01/06 05:33:10;;;;;;;;;;;;;;;3.48;100.00;100619.22;5011299;28;19928;-75
2024/01/06 05:35:35;;;;;;;;;;;;;;;3.51;100.00;100620.84;5012308;28;20010;-74
2024/01/06 05:38:00;;;;;;;;;;;;;;;3.44;100.00;100622.94;5029888;28;19928;-74
2024/01/06 05:40:26;;;;;;;;;;;;;;;3.45;100.00;100625.50;5010673;28;19925;-75
2024/01/06 05:42:52;;;;;;;;;;;;;;;3.42;100.00;100620.41;5007475;28;19921;-75
2024/01/06 05:45:17;;;;;;;;;;;;;;;3.48;100.00;100634.25;5009020;28;20002;-74
2024/01/06 05:47:42;;;;;;;;;;;;;;;3.40;100.00;100638.19;5029044;28;19929;-75
2024/01/06 05:50:10;;;;;;;;;;;;;;;3.39;100.00;100631.16;5010691;28;19964;-75
2024/01/06 05:52:36;;;;;;;;;;;;;;;3.39;100.00;100636.47;5010305;28;19921;-75
2024/01/06 05:55:01;;;;;;;;;;;;;;;3.24;100.00;100638.09;5026991;28;19984;-74
2024/01/06 05:57:26;;;;;;;;;;;;;;;3.21;100.00;100650.66;5026709;28;20011;-75
2024/01/06 05:59:51;;;;;;;;;;;;;;;3.09;100.00;100653.00;5025068;28;19921;-74
2024/01/06 06:02:16;;;;;;;;;;;;;;;3.15;100.00;100631.47;5007592;28;20020;-75
2024/01/06 06:04:42;;;;;;;;;;;;;;;3.29;100.00;100659.97;4991231;28;19918;-75
2024/01/06 06:07:07;;;;;;;;;;;;;;;3.14;100.00;100660.72;5005883;28;19927;-75
2024/01/06 06:09:34;;;;;;;;;;;;;;;3.26;100.00;100669.84;5011177;28;19925;-75
2024/01/06 06:11:59;;;;;;;;;;;;;;;3.09;100.00;100673.34;5025071;28;19921;-75
2024/01/06 06:14:25;;;;;;;;;;;;;;;3.04;100.00;100680.69;4989892;28;19959;-74
2024/01/06 06:16:50;;;;;;;;;;;;;;;2.97;100.00;100696.03;5009131;28;20028;-75
2024/01/06 06:19:15;;;;;;;;;;;;;;;3.12;100.00;100689.09;5024388;28;19934;-75
2024/01/06 06:21:40;;;;;;;;;;;;;;;3.08;100.00;100690.19;4993010;28;19947;-75
2024/01/06 06:24:05;;;;;;;;;;;;;;;3.07;100.00;100705.25;5007532;28;20427;-75
2024/01/06 06:26:31;;;;;;;;;;;;;;;3.04;100.00;100704.56;5028272;28;20334;-75
2024/01/06 06:28:56;;;;;;;;;;;;;;;3.00;100.00;100720.63;5013056;28;20357;-75
2024/01/06 06:31:21;;;;;;;;;;;;;;;2.92;100.00;100724.56;5009209;28;19921;-75
2024/01/06 06:33:46;;;;;;;;;;;;;;;2.84;100.00;100719.63;5026193;28;20011;-75
2024/01/06 06:36:12;;;;;;;;;;;;;;;2.94;100.00;100728.00;5011197;28;19970;-75
2024/01/06 06:38:37;;;;;;;;;;;;;;;3.03;100.00;100727.56;4993981;28;19928;-75
2024/01/06 06:41:02;;;;;;;;;;;;;;;3.04;100.00;100725.78;5029495;28;20243;-75
2024/01/06 06:43:27;;;;;;;;;;;;;;;3.06;100.00;100735.38;5006841;28;20024;-76
2024/01/06 06:45:52;;;;;;;;;;;;;;;3.11;100.00;100735.16;4990860;28;19921;-75
2024/01/06 06:48:18;;;;;;;;;;;;;;;3.05;100.00;100732.78;5011143;28;19921;-75
2024/01/06 06:50:43;;;;;;;;;;;;;;;2.89;100.00;100738.81;5008985;28;19924;-75
2024/01/06 06:53:09;;;;;;;;;;;;;;;2.91;100.00;100749.38;4992056;28;19922;-75
2024/01/06 06:55:34;;;;;;;;;;;;;;;2.95;100.00;100751.81;5009664;28;20398;-76
2024/01/06 06:57:59;;;;;;;;;;;;;;;2.92;100.00;100756.38;5008741;28;20010;-75
2024/01/06 07:00:24;;;;;;;;;;;;;;;2.96;100.00;100755.31;4992495;28;19925;-75
2024/01/06 07:02:50;;;;;;;;;;;;;;;2.94;100.00;100767.78;5006801;28;20409;-75
2024/01/06 07:05:15;;;;;;;;;;;;;;;2.90;100.00;100771.53;4990411;28;20372;-76
2024/01/06 07:07:40;;;;;;;;;;;;;;;2.85;100.00;100772.59;5012879;28;19951;-76
2024/01/06 07:10:06;;;;;;;;;;;;;;;2.85;100.00;100785.84;5006587;28;19921;-75
2024/01/06 07:12:31;;;;;;;;;;;;;;;2.84;100.00;100783.25;5006692;28;19917;-75
2024/01/06 07:14:58;;;;;;;;;;;;;;;2.80;100.00;100794.94;5007047;28;19978;-75
2024/01/06 07:17:23;;;;;;;;;;;;;;;2.75;100.00;100799.63;5022802;28;19968;-75
2024/01/06 07:19:48;;;;;;;;;;;;;;;2.69;100.00;100779.53;5008504;28;20023;-75
2024/01/06 07:22:16;;;;;;;;;;;;;;;2.78;100.00;100805.63;5006313;28;19943;-75
2024/01/06 07:24:41;;;;;;;;;;;;;;;2.74;100.00;100804.03;4995960;28;20195;-75
2024/01/06 07:27:06;;;;;;;;;;;;;;;2.79;100.00;100809.13;4990527;28;20003;-75
2024/01/06 07:29:32;;;;;;;;;;;;;;;2.65;100.00;100801.84;5000841;28;20031;-76
2024/01/06 07:31:57;;;;;;;;;;;;;;;2.54;100.00;100813.75;5027627;28;20024;-75
2024/01/06 07:34:22;;;;;;;;;;;;;;;2.56;100.00;100816.34;5002745;28;19975;-75
2024/01/06 07:36:47;;;;;;;;;;;;;;;2.50;100.00;100821.94;5007168;28;20016;-75
2024/01/06 07:39:12;;;;;;;;;;;;;;;2.51;100.00;100821.84;5008312;28;19963;-75
2024/01/06 07:41:38;;;;;;;;;;;;;;;2.53;100.00;100821.78;5006668;28;20010;-75
2024/01/06 07:44:03;;;;;;;;;;;;;;;2.47;100.00;100825.56;5007865;28;20315;-75
2024/01/06 07:46:28;;;;;;;;;;;;;;;2.43;100.00;100825.78;5010753;28;20310;-75
2024/01/06 07:48:54;;;;;;;;;;;;;;;2.38;100.00;100833.94;5007679;28;20324;-75
2024/01/06 07:51:19;;;;;;;;;;;;;;;2.39;100.00;100833.84;5009292;28;19933;-75
2024/01/06 07:53:44;;;;;;;;;;;;;;;2.40;100.00;100842.66;5007921;28;19983;-75
2024/01/06 07:56:09;;;;;;;;;;;;;;;2.41;100.00;100844.38;5007507;28;20587;-75
2024/01/06 07:58:34;;;;;;;;;;;;;;;2.39;100.00;100847.09;5004424;28;20296;-74
2024/01/06 08:01:00;;;;;;;;;;;;;;;2.37;100.00;100864.00;4992642;28;19925;-74
2024/01/06 08:03:25;;;;;;;;;;;;;;;2.39;100.00;100855.06;5011589;28;19963;-75
2024/01/06 08:05:50;;;;;;;;;;;;;;;2.44;100.00;100857.50;5011217;28;20020;-75
2024/01/06 08:08:16;;;;;;;;;;;;;;;2.37;100.00;100864.00;5007579;28;20332;-75
2024/01/06 08:10:42;;;;;;;;;;;;;;;2.39;100.00;100862.13;5009528;28;19921;-75
2024/01/06 08:13:07;;;;;;;;;;;;;;;2.43;100.00;100868.19;5005096;28;20007;-75
2024/01/06 08:15:32;;;;;;;;;;;;;;;2.43;100.00;100878.78;5006055;28;19968;-75
2024/01/06 08:17:57;;;;;;;;;;;;;;;2.48;100.00;100880.28;5008042;28;20068;-75
2024/01/06 08:20:23;;;;;;;;;;;;;;;2.49;100.00;100889.97;5007288;28;20032;-75
2024/01/06 08:22:48;;;;;;;;;;;;;;;2.46;100.00;100889.25;5003562;28;19982;-75
2024/01/06 08:25:14;;;;;;;;;;;;;;;2.47;100.00;100894.47;5008346;28;19921;-75
2024/01/06 08:27:39;;;;;;;;;;;;;;;2.40;100.00;100888.56;5009093;28;20008;-75
2024/01/06 08:30:04;;;;;;;;;;;;;;;2.45;100.00;100891.03;5011646;28;20406;-75
2024/01/06 08:32:29;;;;;;;;;;;;;;;2.50;100.00;100902.28;5014188;28;19931;-75
2024/01/06 08:34:55;;;;;;;;;;;;;;;2.48;100.00;100912.09;5012621;28;19917;-75
2024/01/06 08:37:20;;;;;;;;;;;;;;;2.51;100.00;100919.91;5025771;28;20071;-75
2024/01/06 08:39:45;;;;;;;;;;;;;;;2.50;100.00;100922.66;5012604;28;19943;-75
2024/01/06 08:42:10;;;;;;;;;;;;;;;2.48;100.00;100925.34;4998456;28;19926;-75
2024/01/06 08:44:35;;;;;;;;;;;;;;;2.49;100.00;100927.06;4993803;28;19921;-75
2024/01/06 08:47:01;;;;;;;;;;;;;;;2.55;100.00;100929.47;5015285;28;20951;-75
2024/01/06 08:49:26;;;;;;;;;;;;;;;2.47;100.00;100931.56;5014628;28;19921;-75
2024/01/06 08:51:51;;;;;;;;;;;;;;;2.49;100.00;100942.13;4998456;28;19921;-75
2024/01/06 08:54:16;;;;;;;;;;;;;;;2.53;100.00;100949.00;5008310;28;20193;-75
2024/01/06 08:56:41;;;;;;;;;;;;;;;2.60;100.00;100949.63;5008082;28;19996;-75
2024/01/06 08:59:07;;;;;;;;;;;;;;;2.52;100.00;100956.09;4999325;28;20012;-75
2024/01/06 09:01:34;;;;;;;;;;;;;;;2.54;100.00;100959.56;5012639;28;19925;-76
2024/01/06 09:03:59;;;;;;;;;;;;;;;2.54;100.00;100962.19;5013709;28;19921;-75
2024/01/06 09:06:24;;;;;;;;;;;;;;;2.58;100.00;100965.56;4995308;28;19925;-75
2024/01/06 09:08:49;;;;;;;;;;;;;;;2.54;100.00;100962.19;5026695;28;20298;-75
2024/01/06 09:11:15;;;;;;;;;;;;;;;2.51;100.00;100967.63;4991347;28;20024;-75
2024/01/06 09:13:40;;;;;;;;;;;;;;;2.58;100.00;100965.56;5008030;28;19921;-75
2024/01/06 09:16:05;;;;;;;;;;;;;;;2.67;100.00;100972.28;5011428;28;19933;-75
2024/01/06 09:18:30;;;;;;;;;;;;;;;2.60;100.00;100979.63;5011629;28;19925;-75
2024/01/06 09:20:56;;;;;;;;;;;;;;;2.70;100.00;100982.75;5011056;28;19921;-75
2024/01/06 09:23:21;;;;;;;;;;;;;;;2.58;100.00;100992.09;5010561;28;19943;-75
2024/01/06 09:25:49;;;;;;;;;;;;;;;2.59;100.00;100988.50;5028796;28;19932;-75
2024/01/06 09:28:14;;;;;;;;;;;;;;;2.62;100.00;100998.13;5013240;28;20056;-75
2024/01/06 09:30:40;;;;;;;;;;;;;;;2.52;100.00;101001.16;5006102;28;19928;-75
2024/01/06 09:33:05;;;;;;;;;;;;;;;2.60;100.00;100995.53;5011267;28;20291;-75
2024/01/06 09:35:30;;;;;;;;;;;;;;;2.62;100.00;101006.09;5009581;28;19925;-75
2024/01/06 09:37:55;;;;;;;;;;;;;;;2.48;100.00;101019.91;4993618;28;19921;-75
2024/01/06 09:40:22;;;;;;;;;;;;;;;2.57;100.00;101018.66;4994873;28;20316;-76
2024/01/06 09:42:48;;;;;;;;;;;;;;;2.52;100.00;101025.03;4993566;28;19924;-75
2024/01/06 09:45:13;;;;;;;;;;;;;;;2.59;100.00;101027.44;5010318;28;20390;-76
2024/01/06 09:47:38;;;;;;;;;;;;;;;2.61;100.00;101030.88;4995547;28;19917;-75
2024/01/06 09:50:05;;;;;;;;;;;;;;;2.55;100.00;101030.19;5003938;28;20201;-75
2024/01/06 09:52:32;;;;;;;;;;;;;;;2.51;100.00;101043.66;4992916;28;19921;-76
2024/01/06 09:54:57;;;;;;;;;;;;;;;2.46;100.00;101046.47;5023302;28;19925;-75
2024/01/06 09:57:22;;;;;;;;;;;;;;;2.54;100.00;101049.69;5004340;28;20035;-76
2024/01/06 09:59:48;;;;;;;;;;;;;;;2.55;100.00;101050.53;4993015;28;19921;-76
2024/01/06 10:02:14;;;;;;;;;;;;;;;2.54;100.00;101052.31;5004747;28;19928;-75
2024/01/06 10:04:39;;;;;;;;;;;;;;;2.62;100.00;101061.75;4994714;28;19925;-75
2024/01/06 10:07:05;;;;;;;;;;;;;;;2.65;100.00;101057.19;5012408;28;20315;-75
2024/01/06 10:09:30;;;;;;;;;;;;;;;2.69;100.00;101056.13;5007595;28;20022;-75
2024/01/06 10:11:56;;;;;;;;;;;;;;;2.72;100.00;101065.75;5024185;28;19932;-75
2024/01/06 10:14:23;;;;;;;;;;;;;;;2.60;100.00;101066.25;5005132;28;19921;-75
2024/01/06 10:16:49;;;;;;;;;;;;;;;2.67;100.00;101070.38;5023887;28;20002;-76
2024/01/06 10:19:14;;;;;;;;;;;;;;;2.67;100.00;101068.59;5010242;28;19971;-75
2024/01/06 10:21:39;;;;;;;;;;;;;;;2.67;100.00;101068.59;5007358;28;19925;-76
2024/01/06 10:24:06;;;;;;;;;;;;;;;2.62;100.00;101080.31;4991733;28;19918;-76
2024/01/06 10:26:31;;;;;;;;;;;;;;;2.62;100.00;101077.66;5005687;28;19929;-76
2024/01/06 10:28:56;;;;;;;;;;;;;;;2.57;100.00;101087.59;5000884;28;19953;-75
2024/01/06 10:31:22;;;;;;;;;;;;;;;2.59;100.00;101086.59;5008097;28;20035;-75
2024/01/06 10:33:47;;;;;;;;;;;;;;;2.58;100.00;101084.88;4992212;28;20303;-76
2024/01/06 10:36:12;;;;;;;;;;;;;;;2.65;100.00;101085.50;4991171;28;20490;-75
2024/01/06 10:38:37;;;;;;;;;;;;;;;2.67;100.00;101086.28;5009475;28;19925;-76
2024/01/06 10:41:06;;;;;;;;;;;;;;;2.72;100.00;101080.81;5009160;28;20020;-76
2024/01/06 10:43:36;;;;;;;;;;;;;;;2.77;100.00;101084.97;5008302;28;20484;-75
2024/01/06 10:46:04;;;;;;;;;;;;;;;2.78;100.00;101086.72;5024277;28;20280;-75
2024/01/06 10:48:29;;;;;;;;;;;;;;;2.78;100.00;101092.00;5025916;28;19928;-75
2024/01/06 10:50:54;;;;;;;;;;;;;;;2.73;100.00;101098.44;5004782;28;19960;-75
2024/01/06 10:53:20;;;;;;;;;;;;;;;2.70;100.00;101095.00;4991739;28;20013;-75
2024/01/06 10:55:45;;;;;;;;;;;;;;;2.77;100.00;101098.25;5002908;28;19931;-75
2024/01/06 10:58:10;;;;;;;;;;;;;;;2.79;100.00;101096.38;5006030;28;20576;-75
2024/01/06 11:00:36;;;;;;;;;;;;;;;2.79;100.00;101101.69;5023147;28;19943;-76
2024/01/06 11:03:01;;;;;;;;;;;;;;;2.85;100.00;101098.78;5009922;28;20341;-75
2024/01/06 11:05:28;;;;;;;;;;;;;;;2.81;100.00;101102.50;5005429;28;20398;-76
2024/01/06 11:07:59;;;;;;;;;;;;;;;2.83;100.00;101113.91;5003431;28;19921;-75
2024/01/06 11:10:25;;;;;;;;;;;;;;;2.86;100.00;101110.25;5002767;28;20439;-75
2024/01/06 11:13:13;;;;;;;;;;;;;;;2.82;100.00;101112.19;4987459;28;20326;-75
2024/01/06 11:15:40;;;;;;;;;;;;;;;2.78;100.00;101117.69;4997638;28;19964;-75
2024/01/06 11:18:05;;;;;;;;;;;;;;;2.82;100.00;101119.25;5021193;28;19925;-76
2024/01/06 11:20:30;;;;;;;;;;;;;;;2.78;100.00;101123.00;4989186;28;19925;-75
2024/01/06 11:22:56;;;;;;;;;;;;;;;2.79;100.00;101124.69;5006958;28;20271;-75
2024/01/06 11:25:21;;;;;;;;;;;;;;;2.72;100.00;101123.22;5008781;28;20355;-75
2024/01/06 11:27:47;;;;;;;;;;;;;;;2.80;100.00;101124.63;5002711;28;19932;-76
2024/01/06 11:30:40;;;;;;;;;;;;;;;2.79;100.00;101125.56;5003435;28;19967;-75
2024/01/06 11:33:05;;;;;;;;;;;;;;;2.76;100.00;101122.19;5004734;28;20432;-75
2024/01/06 11:35:30;;;;;;;;;;;;;;;2.69;100.00;101125.06;5005050;28;20051;-75
2024/01/06 11:38:03;;;;;;;;;;;;;;;2.82;100.00;101127.22;5020424;28;21082;-75
2024/01/06 11:40:35;;;;;;;;;;;;;;;2.76;100.00;101132.78;5006193;28;20267;-75
2024/01/06 11:43:07;;;;;;;;;;;;;;;2.73;100.00;101119.66;4991896;28;20406;-75
2024/01/06 11:45:32;;;;;;;;;;;;;;;2.71;100.00;101125.00;5007736;28;19925;-76
2024/01/06 11:47:58;;;;;;;;;;;;;;;2.75;100.00;101129.25;5003754;28;19932;-75
2024/01/06 11:50:24;;;;;;;;;;;;;;;2.75;100.00;101128.41;5003990;28;19921;-75
2024/01/06 11:52:50;;;;;;;;;;;;;;;2.75;100.00;101126.59;5020729;28;19924;-75
2024/01/06 11:55:17;;;;;;;;;;;;;;;2.75;100.00;101131.06;5000545;28;19948;-75
2024/01/06 11:57:42;;;;;;;;;;;;;;;2.82;100.00;101132.53;5003338;28;19921;-75
2024/01/06 12:00:08;;;;;;;;;;;;;;;2.87;100.00;101130.53;5004698;28;19928;-76
2024/01/06 12:02:33;;;;;;;;;;;;;;;2.62;100.00;101128.88;5003616;28;19959;-75
2024/01/06 12:04:58;;;;;;;;;;;;;;;2.68;100.00;101135.72;5023646;28;20124;-75
2024/01/06 12:07:23;;;;;;;;;;;;;;;2.67;100.00;101137.53;5006893;28;19995;-76
2024/01/06 12:09:49;;;;;;;;;;;;;;;2.72;100.00;101137.34;5006936;28;20051;-75
2024/01/06 12:12:17;;;;;;;;;;;;;;;2.59;100.00;101134.31;5004623;28;19963;-75
2024/01/06 12:14:43;;;;;;;;;;;;;;;2.63;100.00;101138.56;5001518;28;19979;-75
2024/01/06 12:17:08;;;;;;;;;;;;;;;2.61;100.00;101137.75;5005363;28;20012;-75
2024/01/06 12:19:33;;;;;;;;;;;;;;;2.59;100.00;101141.41;5005601;28;19961;-76
2024/01/06 12:21:58;;;;;;;;;;;;;;;2.28;100.00;101086.97;5003848;28;19920;-75
2024/01/06 12:24:24;;;;;;;;;;;;;;;2.58;100.00;101137.88;5001511;28;19925;-75
2024/01/06 12:26:49;;;;;;;;;;;;;;;2.56;100.00;101139.72;5002865;28;20322;-75